sensor_id;sensor_type;location;lat;lon;timestamp;P1;durP1;ratioP1;P2;durP2;ratioP2
64903;SDS011;51401;48.882;12.598;2023-11-19T00:00:48;12.73;;;8.35;;
64903;SDS011;51401;48.882;12.598;2023-11-19T00:03:14;12.88;;;8.75;;
64903;SDS011;51401;48.882;12.598;2023-11-19T00:05:39;14.80;;;10.05;;
64903;SDS011;51401;48.882;12.598;2023-11-19T00:08:04;15.82;;;9.45;;
64903;SDS011;51401;48.882;12.598;2023-11-19T00:10:31;14.40;;;9.57;;
64903;SDS011;51401;48.882;12.598;2023-11-19T00:12:56;14.73;;;8.95;;
64903;SDS011;51401;48.882;12.598;2023-11-19T00:15:22;16.55;;;10.18;;
64903;SDS011;51401;48.882;12.598;2023-11-19T00:17:49;13.05;;;9.07;;
64903;SDS011;51401;48.882;12.598;2023-11-19T00:20:15;13.27;;;9.30;;
64903;SDS011;51401;48.882;12.598;2023-11-19T00:22:42;15.02;;;9.25;;
64903;SDS011;51401;48.882;12.598;2023-11-19T00:25:08;12.23;;;9.13;;
64903;SDS011;51401;48.882;12.598;2023-11-19T00:27:34;14.20;;;9.00;;
64903;SDS011;51401;48.882;12.598;2023-11-19T00:29:59;13.13;;;8.93;;
64903;SDS011;51401;48.882;12.598;2023-11-19T00:32:25;14.75;;;9.43;;
64903;SDS011;51401;48.882;12.598;2023-11-19T00:34:50;15.23;;;10.10;;
64903;SDS011;51401;48.882;12.598;2023-11-19T00:37:16;12.32;;;8.60;;
64903;SDS011;51401;48.882;12.598;2023-11-19T00:39:42;13.73;;;8.38;;
64903;SDS011;51401;48.882;12.598;2023-11-19T00:42:08;12.30;;;8.15;;
64903;SDS011;51401;48.882;12.598;2023-11-19T00:44:35;11.77;;;8.25;;
64903;SDS011;51401;48.882;12.598;2023-11-19T00:47:00;13.23;;;8.13;;
64903;SDS011;51401;48.882;12.598;2023-11-19T00:49:25;12.45;;;8.55;;
64903;SDS011;51401;48.882;12.598;2023-11-19T00:51:51;11.43;;;7.45;;
64903;SDS011;51401;48.882;12.598;2023-11-19T00:54:16;11.60;;;8.38;;
64903;SDS011;51401;48.882;12.598;2023-11-19T00:56:42;11.60;;;8.18;;
64903;SDS011;51401;48.882;12.598;2023-11-19T00:59:07;11.63;;;8.20;;
64903;SDS011;51401;48.882;12.598;2023-11-19T01:01:32;11.50;;;7.68;;
64903;SDS011;51401;48.882;12.598;2023-11-19T01:03:58;10.93;;;7.88;;
64903;SDS011;51401;48.882;12.598;2023-11-19T01:06:26;12.90;;;8.47;;
64903;SDS011;51401;48.882;12.598;2023-11-19T01:08:55;9.98;;;7.75;;
64903;SDS011;51401;48.882;12.598;2023-11-19T01:11:25;13.02;;;8.93;;
64903;SDS011;51401;48.882;12.598;2023-11-19T01:13:51;15.20;;;8.70;;
64903;SDS011;51401;48.882;12.598;2023-11-19T01:16:17;12.60;;;8.45;;
64903;SDS011;51401;48.882;12.598;2023-11-19T01:18:44;12.65;;;8.45;;
64903;SDS011;51401;48.882;12.598;2023-11-19T01:21:09;14.90;;;8.85;;
64903;SDS011;51401;48.882;12.598;2023-11-19T01:23:35;11.38;;;8.07;;
64903;SDS011;51401;48.882;12.598;2023-11-19T01:26:00;15.30;;;9.13;;
64903;SDS011;51401;48.882;12.598;2023-11-19T01:28:26;13.23;;;8.95;;
64903;SDS011;51401;48.882;12.598;2023-11-19T01:30:51;14.02;;;8.70;;
64903;SDS011;51401;48.882;12.598;2023-11-19T01:33:17;14.13;;;9.48;;
64903;SDS011;51401;48.882;12.598;2023-11-19T01:35:42;14.00;;;8.05;;
64903;SDS011;51401;48.882;12.598;2023-11-19T01:38:07;12.10;;;8.45;;
64903;SDS011;51401;48.882;12.598;2023-11-19T01:40:35;13.27;;;8.27;;
64903;SDS011;51401;48.882;12.598;2023-11-19T01:43:01;10.48;;;7.78;;
64903;SDS011;51401;48.882;12.598;2023-11-19T01:45:28;12.82;;;8.35;;
64903;SDS011;51401;48.882;12.598;2023-11-19T01:47:55;12.23;;;7.93;;
64903;SDS011;51401;48.882;12.598;2023-11-19T01:50:25;13.27;;;8.88;;
64903;SDS011;51401;48.882;12.598;2023-11-19T01:52:54;11.25;;;7.68;;
64903;SDS011;51401;48.882;12.598;2023-11-19T01:55:22;9.93;;;7.30;;
64903;SDS011;51401;48.882;12.598;2023-11-19T01:57:49;13.52;;;8.27;;
64903;SDS011;51401;48.882;12.598;2023-11-19T02:00:14;10.13;;;7.35;;
64903;SDS011;51401;48.882;12.598;2023-11-19T02:02:41;13.50;;;9.25;;
64903;SDS011;51401;48.882;12.598;2023-11-19T02:05:08;13.32;;;8.40;;
64903;SDS011;51401;48.882;12.598;2023-11-19T02:07:34;13.25;;;7.50;;
64903;SDS011;51401;48.882;12.598;2023-11-19T02:09:59;11.50;;;7.07;;
64903;SDS011;51401;48.882;12.598;2023-11-19T02:12:27;12.10;;;7.68;;
64903;SDS011;51401;48.882;12.598;2023-11-19T02:14:58;15.18;;;7.85;;
64903;SDS011;51401;48.882;12.598;2023-11-19T02:17:27;11.32;;;7.35;;
64903;SDS011;51401;48.882;12.598;2023-11-19T02:19:56;10.98;;;7.25;;
64903;SDS011;51401;48.882;12.598;2023-11-19T02:22:23;10.80;;;7.80;;
64903;SDS011;51401;48.882;12.598;2023-11-19T02:24:49;9.40;;;6.40;;
64903;SDS011;51401;48.882;12.598;2023-11-19T02:27:31;10.25;;;6.93;;
64903;SDS011;51401;48.882;12.598;2023-11-19T02:30:16;11.27;;;7.25;;
64903;SDS011;51401;48.882;12.598;2023-11-19T02:32:42;9.75;;;6.65;;
64903;SDS011;51401;48.882;12.598;2023-11-19T02:35:07;11.25;;;6.93;;
64903;SDS011;51401;48.882;12.598;2023-11-19T02:37:37;11.57;;;7.57;;
64903;SDS011;51401;48.882;12.598;2023-11-19T02:42:30;12.57;;;8.00;;
64903;SDS011;51401;48.882;12.598;2023-11-19T02:44:56;12.40;;;6.95;;
64903;SDS011;51401;48.882;12.598;2023-11-19T02:47:21;12.35;;;8.10;;
64903;SDS011;51401;48.882;12.598;2023-11-19T02:49:49;8.75;;;6.40;;
64903;SDS011;51401;48.882;12.598;2023-11-19T02:52:17;9.88;;;6.93;;
64903;SDS011;51401;48.882;12.598;2023-11-19T02:54:43;10.05;;;6.25;;
64903;SDS011;51401;48.882;12.598;2023-11-19T02:57:09;10.90;;;7.07;;
64903;SDS011;51401;48.882;12.598;2023-11-19T02:59:37;9.25;;;6.03;;
64903;SDS011;51401;48.882;12.598;2023-11-19T03:02:04;9.32;;;5.93;;
64903;SDS011;51401;48.882;12.598;2023-11-19T03:04:32;10.00;;;6.05;;
64903;SDS011;51401;48.882;12.598;2023-11-19T03:06:58;9.18;;;6.07;;
64903;SDS011;51401;48.882;12.598;2023-11-19T03:09:23;9.48;;;6.68;;
64903;SDS011;51401;48.882;12.598;2023-11-19T03:11:49;9.15;;;5.50;;
64903;SDS011;51401;48.882;12.598;2023-11-19T03:14:14;8.07;;;6.35;;
64903;SDS011;51401;48.882;12.598;2023-11-19T03:16:40;7.70;;;6.60;;
64903;SDS011;51401;48.882;12.598;2023-11-19T03:19:05;7.88;;;5.30;;
64903;SDS011;51401;48.882;12.598;2023-11-19T03:21:30;8.65;;;6.20;;
64903;SDS011;51401;48.882;12.598;2023-11-19T03:23:57;7.65;;;5.35;;
64903;SDS011;51401;48.882;12.598;2023-11-19T03:26:25;7.97;;;5.97;;
64903;SDS011;51401;48.882;12.598;2023-11-19T03:28:51;9.43;;;6.03;;
64903;SDS011;51401;48.882;12.598;2023-11-19T03:31:16;8.13;;;5.60;;
64903;SDS011;51401;48.882;12.598;2023-11-19T03:33:42;8.50;;;5.43;;
64903;SDS011;51401;48.882;12.598;2023-11-19T03:36:07;7.40;;;5.68;;
64903;SDS011;51401;48.882;12.598;2023-11-19T03:38:34;7.75;;;5.68;;
64903;SDS011;51401;48.882;12.598;2023-11-19T03:40:59;9.68;;;6.18;;
64903;SDS011;51401;48.882;12.598;2023-11-19T03:43:24;8.50;;;5.68;;
64903;SDS011;51401;48.882;12.598;2023-11-19T03:45:50;8.23;;;5.63;;
64903;SDS011;51401;48.882;12.598;2023-11-19T03:48:15;6.90;;;5.15;;
64903;SDS011;51401;48.882;12.598;2023-11-19T03:50:41;5.85;;;4.63;;
64903;SDS011;51401;48.882;12.598;2023-11-19T03:53:07;5.53;;;4.25;;
64903;SDS011;51401;48.882;12.598;2023-11-19T03:55:32;8.27;;;5.10;;
64903;SDS011;51401;48.882;12.598;2023-11-19T03:57:57;8.23;;;4.93;;
64903;SDS011;51401;48.882;12.598;2023-11-19T04:00:23;4.90;;;3.80;;
64903;SDS011;51401;48.882;12.598;2023-11-19T04:02:48;5.65;;;4.05;;
64903;SDS011;51401;48.882;12.598;2023-11-19T04:05:13;6.38;;;4.65;;
64903;SDS011;51401;48.882;12.598;2023-11-19T04:07:39;6.22;;;4.40;;
64903;SDS011;51401;48.882;12.598;2023-11-19T04:10:04;5.88;;;4.15;;
64903;SDS011;51401;48.882;12.598;2023-11-19T04:12:30;5.28;;;3.92;;
64903;SDS011;51401;48.882;12.598;2023-11-19T04:14:55;7.18;;;3.90;;
64903;SDS011;51401;48.882;12.598;2023-11-19T04:17:21;5.15;;;4.05;;
64903;SDS011;51401;48.882;12.598;2023-11-19T04:19:47;6.32;;;4.70;;
64903;SDS011;51401;48.882;12.598;2023-11-19T04:22:13;4.43;;;3.38;;
64903;SDS011;51401;48.882;12.598;2023-11-19T04:24:38;6.43;;;4.32;;
64903;SDS011;51401;48.882;12.598;2023-11-19T04:27:05;4.90;;;3.40;;
64903;SDS011;51401;48.882;12.598;2023-11-19T04:29:31;5.25;;;3.65;;
64903;SDS011;51401;48.882;12.598;2023-11-19T04:31:57;4.47;;;3.63;;
64903;SDS011;51401;48.882;12.598;2023-11-19T04:34:22;5.95;;;4.18;;
64903;SDS011;51401;48.882;12.598;2023-11-19T04:36:47;6.18;;;4.40;;
64903;SDS011;51401;48.882;12.598;2023-11-19T04:39:13;4.90;;;3.67;;
64903;SDS011;51401;48.882;12.598;2023-11-19T04:41:50;6.28;;;3.42;;
64903;SDS011;51401;48.882;12.598;2023-11-19T04:44:17;4.85;;;3.50;;
64903;SDS011;51401;48.882;12.598;2023-11-19T04:46:42;4.18;;;2.95;;
64903;SDS011;51401;48.882;12.598;2023-11-19T04:49:09;4.13;;;3.13;;
64903;SDS011;51401;48.882;12.598;2023-11-19T04:51:41;4.15;;;3.45;;
64903;SDS011;51401;48.882;12.598;2023-11-19T04:54:07;4.10;;;3.53;;
64903;SDS011;51401;48.882;12.598;2023-11-19T04:56:36;4.75;;;3.55;;
64903;SDS011;51401;48.882;12.598;2023-11-19T04:59:02;4.88;;;3.15;;
64903;SDS011;51401;48.882;12.598;2023-11-19T05:01:28;4.68;;;3.53;;
64903;SDS011;51401;48.882;12.598;2023-11-19T05:03:53;3.90;;;3.25;;
64903;SDS011;51401;48.882;12.598;2023-11-19T05:06:18;4.38;;;3.08;;
64903;SDS011;51401;48.882;12.598;2023-11-19T05:08:44;4.65;;;3.15;;
64903;SDS011;51401;48.882;12.598;2023-11-19T05:11:09;4.65;;;3.55;;
64903;SDS011;51401;48.882;12.598;2023-11-19T05:13:37;4.13;;;3.63;;
64903;SDS011;51401;48.882;12.598;2023-11-19T05:16:03;4.65;;;3.25;;
64903;SDS011;51401;48.882;12.598;2023-11-19T05:18:28;4.47;;;3.58;;
64903;SDS011;51401;48.882;12.598;2023-11-19T05:20:54;5.65;;;3.80;;
64903;SDS011;51401;48.882;12.598;2023-11-19T05:23:19;4.18;;;3.20;;
64903;SDS011;51401;48.882;12.598;2023-11-19T05:25:45;4.28;;;3.03;;
64903;SDS011;51401;48.882;12.598;2023-11-19T05:28:10;3.95;;;3.08;;
64903;SDS011;51401;48.882;12.598;2023-11-19T05:30:36;3.63;;;3.20;;
64903;SDS011;51401;48.882;12.598;2023-11-19T05:33:01;4.38;;;3.20;;
64903;SDS011;51401;48.882;12.598;2023-11-19T05:35:26;5.43;;;4.60;;
64903;SDS011;51401;48.882;12.598;2023-11-19T05:37:51;3.72;;;2.55;;
64903;SDS011;51401;48.882;12.598;2023-11-19T05:40:17;3.95;;;3.03;;
64903;SDS011;51401;48.882;12.598;2023-11-19T05:42:42;3.92;;;3.10;;
64903;SDS011;51401;48.882;12.598;2023-11-19T05:45:09;5.40;;;3.35;;
64903;SDS011;51401;48.882;12.598;2023-11-19T05:47:36;3.47;;;2.78;;
64903;SDS011;51401;48.882;12.598;2023-11-19T05:50:01;4.05;;;3.40;;
64903;SDS011;51401;48.882;12.598;2023-11-19T05:52:27;4.18;;;3.20;;
64903;SDS011;51401;48.882;12.598;2023-11-19T05:54:54;3.20;;;2.20;;
64903;SDS011;51401;48.882;12.598;2023-11-19T05:57:20;5.85;;;3.00;;
64903;SDS011;51401;48.882;12.598;2023-11-19T05:59:48;3.45;;;2.78;;
64903;SDS011;51401;48.882;12.598;2023-11-19T06:02:14;5.22;;;3.35;;
64903;SDS011;51401;48.882;12.598;2023-11-19T06:04:42;3.00;;;2.63;;
64903;SDS011;51401;48.882;12.598;2023-11-19T06:07:09;4.43;;;3.35;;
64903;SDS011;51401;48.882;12.598;2023-11-19T06:09:35;3.70;;;2.88;;
64903;SDS011;51401;48.882;12.598;2023-11-19T06:12:00;4.38;;;2.90;;
64903;SDS011;51401;48.882;12.598;2023-11-19T06:14:27;3.97;;;3.05;;
64903;SDS011;51401;48.882;12.598;2023-11-19T06:16:52;4.53;;;3.15;;
64903;SDS011;51401;48.882;12.598;2023-11-19T06:19:18;4.28;;;2.72;;
64903;SDS011;51401;48.882;12.598;2023-11-19T06:21:43;3.10;;;2.63;;
64903;SDS011;51401;48.882;12.598;2023-11-19T06:24:08;4.20;;;3.05;;
64903;SDS011;51401;48.882;12.598;2023-11-19T06:26:34;5.68;;;4.65;;
64903;SDS011;51401;48.882;12.598;2023-11-19T06:28:59;5.63;;;4.55;;
64903;SDS011;51401;48.882;12.598;2023-11-19T06:31:25;6.88;;;4.15;;
64903;SDS011;51401;48.882;12.598;2023-11-19T06:33:50;5.22;;;3.95;;
64903;SDS011;51401;48.882;12.598;2023-11-19T06:36:15;4.28;;;2.85;;
64903;SDS011;51401;48.882;12.598;2023-11-19T06:38:43;3.40;;;2.28;;
64903;SDS011;51401;48.882;12.598;2023-11-19T06:41:09;4.55;;;2.85;;
64903;SDS011;51401;48.882;12.598;2023-11-19T06:43:34;4.35;;;3.35;;
64903;SDS011;51401;48.882;12.598;2023-11-19T06:46:01;4.07;;;3.08;;
64903;SDS011;51401;48.882;12.598;2023-11-19T06:48:26;4.93;;;3.50;;
64903;SDS011;51401;48.882;12.598;2023-11-19T06:50:52;4.32;;;3.67;;
64903;SDS011;51401;48.882;12.598;2023-11-19T06:53:17;3.85;;;3.28;;
64903;SDS011;51401;48.882;12.598;2023-11-19T06:55:42;6.13;;;3.15;;
64903;SDS011;51401;48.882;12.598;2023-11-19T06:58:08;3.35;;;2.70;;
64903;SDS011;51401;48.882;12.598;2023-11-19T07:00:33;4.88;;;3.45;;
64903;SDS011;51401;48.882;12.598;2023-11-19T07:03:00;5.05;;;3.33;;
64903;SDS011;51401;48.882;12.598;2023-11-19T07:05:26;5.43;;;3.35;;
64903;SDS011;51401;48.882;12.598;2023-11-19T07:07:51;4.93;;;3.42;;
64903;SDS011;51401;48.882;12.598;2023-11-19T07:10:16;4.00;;;3.15;;
64903;SDS011;51401;48.882;12.598;2023-11-19T07:12:42;4.65;;;3.58;;
64903;SDS011;51401;48.882;12.598;2023-11-19T07:15:07;5.38;;;4.70;;
64903;SDS011;51401;48.882;12.598;2023-11-19T07:17:34;5.05;;;3.72;;
64903;SDS011;51401;48.882;12.598;2023-11-19T07:20:00;5.07;;;3.72;;
64903;SDS011;51401;48.882;12.598;2023-11-19T07:22:25;4.95;;;3.78;;
64903;SDS011;51401;48.882;12.598;2023-11-19T07:24:51;4.57;;;3.38;;
64903;SDS011;51401;48.882;12.598;2023-11-19T07:27:18;5.47;;;3.30;;
64903;SDS011;51401;48.882;12.598;2023-11-19T07:29:43;4.45;;;2.85;;
64903;SDS011;51401;48.882;12.598;2023-11-19T07:32:09;5.72;;;4.40;;
64903;SDS011;51401;48.882;12.598;2023-11-19T07:34:36;7.15;;;3.88;;
64903;SDS011;51401;48.882;12.598;2023-11-19T07:37:01;6.35;;;3.40;;
64903;SDS011;51401;48.882;12.598;2023-11-19T07:39:28;4.30;;;3.40;;
64903;SDS011;51401;48.882;12.598;2023-11-19T07:41:54;4.65;;;3.75;;
64903;SDS011;51401;48.882;12.598;2023-11-19T07:44:20;6.22;;;3.95;;
64903;SDS011;51401;48.882;12.598;2023-11-19T07:46:46;7.68;;;4.80;;
64903;SDS011;51401;48.882;12.598;2023-11-19T07:49:11;6.25;;;4.60;;
64903;SDS011;51401;48.882;12.598;2023-11-19T07:51:37;4.18;;;3.28;;
64903;SDS011;51401;48.882;12.598;2023-11-19T07:54:02;8.50;;;5.25;;
64903;SDS011;51401;48.882;12.598;2023-11-19T07:56:29;4.20;;;3.28;;
64903;SDS011;51401;48.882;12.598;2023-11-19T07:58:54;5.85;;;3.53;;
64903;SDS011;51401;48.882;12.598;2023-11-19T08:01:19;4.63;;;3.75;;
64903;SDS011;51401;48.882;12.598;2023-11-19T08:03:45;5.60;;;3.90;;
64903;SDS011;51401;48.882;12.598;2023-11-19T08:06:10;5.10;;;3.75;;
64903;SDS011;51401;48.882;12.598;2023-11-19T08:08:35;4.90;;;3.83;;
64903;SDS011;51401;48.882;12.598;2023-11-19T08:11:03;5.82;;;4.03;;
64903;SDS011;51401;48.882;12.598;2023-11-19T08:13:30;5.72;;;4.30;;
64903;SDS011;51401;48.882;12.598;2023-11-19T08:15:56;5.15;;;3.83;;
64903;SDS011;51401;48.882;12.598;2023-11-19T08:18:23;5.30;;;3.53;;
64903;SDS011;51401;48.882;12.598;2023-11-19T08:20:48;4.57;;;3.63;;
64903;SDS011;51401;48.882;12.598;2023-11-19T08:23:17;4.95;;;3.75;;
64903;SDS011;51401;48.882;12.598;2023-11-19T08:25:43;4.57;;;3.47;;
64903;SDS011;51401;48.882;12.598;2023-11-19T08:28:09;4.30;;;2.83;;
64903;SDS011;51401;48.882;12.598;2023-11-19T08:30:34;4.28;;;2.97;;
64903;SDS011;51401;48.882;12.598;2023-11-19T08:33:00;5.15;;;3.10;;
64903;SDS011;51401;48.882;12.598;2023-11-19T08:35:27;4.50;;;3.20;;
64903;SDS011;51401;48.882;12.598;2023-11-19T08:37:53;4.35;;;3.05;;
64903;SDS011;51401;48.882;12.598;2023-11-19T08:40:19;3.60;;;3.08;;
64903;SDS011;51401;48.882;12.598;2023-11-19T08:42:45;4.07;;;2.88;;
64903;SDS011;51401;48.882;12.598;2023-11-19T08:45:10;4.40;;;3.20;;
64903;SDS011;51401;48.882;12.598;2023-11-19T08:47:36;6.05;;;3.40;;
64903;SDS011;51401;48.882;12.598;2023-11-19T08:50:02;5.53;;;3.17;;
64903;SDS011;51401;48.882;12.598;2023-11-19T08:52:29;4.47;;;2.90;;
64903;SDS011;51401;48.882;12.598;2023-11-19T08:54:54;3.08;;;2.40;;
64903;SDS011;51401;48.882;12.598;2023-11-19T08:57:20;7.53;;;6.82;;
64903;SDS011;51401;48.882;12.598;2023-11-19T08:59:45;3.70;;;2.90;;
64903;SDS011;51401;48.882;12.598;2023-11-19T09:02:11;5.72;;;4.28;;
64903;SDS011;51401;48.882;12.598;2023-11-19T09:04:36;3.10;;;2.50;;
64903;SDS011;51401;48.882;12.598;2023-11-19T09:07:02;4.55;;;2.95;;
64903;SDS011;51401;48.882;12.598;2023-11-19T09:09:28;4.45;;;3.20;;
64903;SDS011;51401;48.882;12.598;2023-11-19T09:11:53;3.28;;;2.20;;
64903;SDS011;51401;48.882;12.598;2023-11-19T09:14:19;2.63;;;2.00;;
64903;SDS011;51401;48.882;12.598;2023-11-19T09:16:49;3.20;;;2.33;;
64903;SDS011;51401;48.882;12.598;2023-11-19T09:19:14;3.05;;;2.03;;
64903;SDS011;51401;48.882;12.598;2023-11-19T09:21:39;2.60;;;2.20;;
64903;SDS011;51401;48.882;12.598;2023-11-19T09:24:05;2.95;;;2.22;;
64903;SDS011;51401;48.882;12.598;2023-11-19T09:26:30;2.30;;;1.98;;
64903;SDS011;51401;48.882;12.598;2023-11-19T09:28:55;2.50;;;2.00;;
64903;SDS011;51401;48.882;12.598;2023-11-19T09:31:21;2.42;;;2.10;;
64903;SDS011;51401;48.882;12.598;2023-11-19T09:33:46;3.23;;;2.60;;
64903;SDS011;51401;48.882;12.598;2023-11-19T09:36:12;2.47;;;2.28;;
64903;SDS011;51401;48.882;12.598;2023-11-19T09:38:39;2.85;;;2.30;;
64903;SDS011;51401;48.882;12.598;2023-11-19T09:41:09;21.73;;;17.40;;
64903;SDS011;51401;48.882;12.598;2023-11-19T09:43:36;3.72;;;2.60;;
64903;SDS011;51401;48.882;12.598;2023-11-19T09:46:04;2.53;;;1.92;;
64903;SDS011;51401;48.882;12.598;2023-11-19T09:48:32;3.03;;;1.60;;
64903;SDS011;51401;48.882;12.598;2023-11-19T09:51:01;2.50;;;2.30;;
64903;SDS011;51401;48.882;12.598;2023-11-19T09:53:27;2.28;;;1.73;;
64903;SDS011;51401;48.882;12.598;2023-11-19T09:55:53;2.45;;;2.10;;
64903;SDS011;51401;48.882;12.598;2023-11-19T09:58:18;3.33;;;1.98;;
64903;SDS011;51401;48.882;12.598;2023-11-19T10:00:44;2.00;;;1.63;;
64903;SDS011;51401;48.882;12.598;2023-11-19T10:03:10;3.10;;;1.98;;
64903;SDS011;51401;48.882;12.598;2023-11-19T10:05:37;2.28;;;1.60;;
64903;SDS011;51401;48.882;12.598;2023-11-19T10:08:04;2.58;;;1.70;;
64903;SDS011;51401;48.882;12.598;2023-11-19T10:10:29;1.98;;;1.70;;
64903;SDS011;51401;48.882;12.598;2023-11-19T10:12:55;1.75;;;1.50;;
64903;SDS011;51401;48.882;12.598;2023-11-19T10:15:21;1.98;;;1.50;;
64903;SDS011;51401;48.882;12.598;2023-11-19T10:17:47;2.00;;;1.80;;
64903;SDS011;51401;48.882;12.598;2023-11-19T10:20:13;3.50;;;2.45;;
64903;SDS011;51401;48.882;12.598;2023-11-19T10:22:38;2.50;;;2.28;;
64903;SDS011;51401;48.882;12.598;2023-11-19T10:25:04;1.75;;;1.65;;
64903;SDS011;51401;48.882;12.598;2023-11-19T10:27:30;2.90;;;2.40;;
64903;SDS011;51401;48.882;12.598;2023-11-19T10:29:58;1.58;;;1.38;;
64903;SDS011;51401;48.882;12.598;2023-11-19T10:32:24;2.50;;;2.08;;
64903;SDS011;51401;48.882;12.598;2023-11-19T10:34:50;4.10;;;2.33;;
64903;SDS011;51401;48.882;12.598;2023-11-19T10:37:30;4.20;;;3.05;;
64903;SDS011;51401;48.882;12.598;2023-11-19T10:40:01;5.82;;;4.05;;
64903;SDS011;51401;48.882;12.598;2023-11-19T10:42:26;3.15;;;1.95;;
64903;SDS011;51401;48.882;12.598;2023-11-19T10:44:51;2.00;;;1.75;;
64903;SDS011;51401;48.882;12.598;2023-11-19T10:47:18;2.10;;;1.83;;
64903;SDS011;51401;48.882;12.598;2023-11-19T10:49:45;3.00;;;2.00;;
64903;SDS011;51401;48.882;12.598;2023-11-19T10:52:15;2.38;;;1.88;;
64903;SDS011;51401;48.882;12.598;2023-11-19T10:54:49;2.53;;;1.70;;
64903;SDS011;51401;48.882;12.598;2023-11-19T10:57:19;1.48;;;1.20;;
64903;SDS011;51401;48.882;12.598;2023-11-19T10:59:46;1.10;;;1.00;;
64903;SDS011;51401;48.882;12.598;2023-11-19T11:02:12;1.20;;;1.00;;
64903;SDS011;51401;48.882;12.598;2023-11-19T11:04:41;1.80;;;1.10;;
64903;SDS011;51401;48.882;12.598;2023-11-19T11:07:07;2.50;;;1.85;;
64903;SDS011;51401;48.882;12.598;2023-11-19T11:09:33;3.10;;;2.08;;
64903;SDS011;51401;48.882;12.598;2023-11-19T11:12:00;2.90;;;2.00;;
64903;SDS011;51401;48.882;12.598;2023-11-19T11:14:26;2.25;;;1.65;;
64903;SDS011;51401;48.882;12.598;2023-11-19T11:16:53;3.92;;;2.70;;
64903;SDS011;51401;48.882;12.598;2023-11-19T11:19:18;3.28;;;1.88;;
64903;SDS011;51401;48.882;12.598;2023-11-19T11:21:46;3.40;;;2.10;;
64903;SDS011;51401;48.882;12.598;2023-11-19T11:29:44;1.88;;;1.50;;
64903;SDS011;51401;48.882;12.598;2023-11-19T11:38:12;2.40;;;2.00;;
64903;SDS011;51401;48.882;12.598;2023-11-19T11:40:39;3.05;;;2.60;;
64903;SDS011;51401;48.882;12.598;2023-11-19T11:43:25;3.28;;;2.38;;
64903;SDS011;51401;48.882;12.598;2023-11-19T11:46:09;4.00;;;3.10;;
64903;SDS011;51401;48.882;12.598;2023-11-19T11:48:57;5.70;;;3.72;;
64903;SDS011;51401;48.882;12.598;2023-11-19T11:56:43;3.40;;;2.90;;
64903;SDS011;51401;48.882;12.598;2023-11-19T11:59:34;4.95;;;4.45;;
64903;SDS011;51401;48.882;12.598;2023-11-19T12:02:02;2.65;;;2.35;;
64903;SDS011;51401;48.882;12.598;2023-11-19T12:04:28;4.70;;;3.47;;
64903;SDS011;51401;48.882;12.598;2023-11-19T12:07:06;7.15;;;5.13;;
64903;SDS011;51401;48.882;12.598;2023-11-19T12:09:37;5.35;;;4.00;;
64903;SDS011;51401;48.882;12.598;2023-11-19T12:20:02;1.05;;;0.95;;
64903;SDS011;51401;48.882;12.598;2023-11-19T12:22:31;1.60;;;1.30;;
64903;SDS011;51401;48.882;12.598;2023-11-19T12:24:56;2.20;;;1.65;;
64903;SDS011;51401;48.882;12.598;2023-11-19T12:27:22;2.47;;;1.50;;
64903;SDS011;51401;48.882;12.598;2023-11-19T12:29:47;2.00;;;1.38;;
64903;SDS011;51401;48.882;12.598;2023-11-19T12:32:13;2.47;;;1.50;;
64903;SDS011;51401;48.882;12.598;2023-11-19T12:34:38;2.38;;;1.88;;
64903;SDS011;51401;48.882;12.598;2023-11-19T12:37:04;2.72;;;1.70;;
64903;SDS011;51401;48.882;12.598;2023-11-19T12:39:30;1.70;;;1.50;;
64903;SDS011;51401;48.882;12.598;2023-11-19T12:41:56;2.28;;;1.65;;
64903;SDS011;51401;48.882;12.598;2023-11-19T12:44:24;1.67;;;1.58;;
64903;SDS011;51401;48.882;12.598;2023-11-19T12:47:05;1.70;;;1.60;;
64903;SDS011;51401;48.882;12.598;2023-11-19T12:49:32;1.58;;;1.25;;
64903;SDS011;51401;48.882;12.598;2023-11-19T12:51:58;1.60;;;1.45;;
64903;SDS011;51401;48.882;12.598;2023-11-19T12:54:37;2.22;;;1.95;;
64903;SDS011;51401;48.882;12.598;2023-11-19T12:57:03;3.30;;;2.20;;
64903;SDS011;51401;48.882;12.598;2023-11-19T12:59:30;2.33;;;1.50;;
64903;SDS011;51401;48.882;12.598;2023-11-19T13:01:56;1.60;;;1.40;;
64903;SDS011;51401;48.882;12.598;2023-11-19T13:04:28;2.90;;;1.70;;
64903;SDS011;51401;48.882;12.598;2023-11-19T13:06:55;2.50;;;2.00;;
64903;SDS011;51401;48.882;12.598;2023-11-19T13:09:22;2.80;;;2.42;;
64903;SDS011;51401;48.882;12.598;2023-11-19T13:11:52;5.82;;;5.00;;
64903;SDS011;51401;48.882;12.598;2023-11-19T13:14:18;3.65;;;3.05;;
64903;SDS011;51401;48.882;12.598;2023-11-19T13:16:44;3.35;;;3.05;;
64903;SDS011;51401;48.882;12.598;2023-11-19T13:19:12;3.65;;;3.35;;
64903;SDS011;51401;48.882;12.598;2023-11-19T13:21:38;3.60;;;3.20;;
64903;SDS011;51401;48.882;12.598;2023-11-19T13:24:04;3.90;;;3.38;;
64903;SDS011;51401;48.882;12.598;2023-11-19T13:26:30;3.78;;;2.60;;
64903;SDS011;51401;48.882;12.598;2023-11-19T13:28:56;4.20;;;2.88;;
64903;SDS011;51401;48.882;12.598;2023-11-19T13:31:21;3.72;;;3.33;;
64903;SDS011;51401;48.882;12.598;2023-11-19T13:33:47;4.15;;;3.75;;
64903;SDS011;51401;48.882;12.598;2023-11-19T13:36:13;6.03;;;5.43;;
64903;SDS011;51401;48.882;12.598;2023-11-19T13:38:38;4.60;;;4.20;;
64903;SDS011;51401;48.882;12.598;2023-11-19T13:41:06;4.82;;;4.05;;
64903;SDS011;51401;48.882;12.598;2023-11-19T13:43:31;4.43;;;3.92;;
64903;SDS011;51401;48.882;12.598;2023-11-19T13:45:57;4.05;;;3.60;;
64903;SDS011;51401;48.882;12.598;2023-11-19T13:48:23;4.10;;;3.25;;
64903;SDS011;51401;48.882;12.598;2023-11-19T13:50:49;3.47;;;2.63;;
64903;SDS011;51401;48.882;12.598;2023-11-19T13:53:15;3.90;;;3.47;;
64903;SDS011;51401;48.882;12.598;2023-11-19T13:55:43;3.92;;;3.40;;
64903;SDS011;51401;48.882;12.598;2023-11-19T13:58:08;3.50;;;3.20;;
64903;SDS011;51401;48.882;12.598;2023-11-19T14:00:34;3.22;;;2.83;;
64903;SDS011;51401;48.882;12.598;2023-11-19T14:02:59;3.92;;;3.53;;
64903;SDS011;51401;48.882;12.598;2023-11-19T14:05:25;3.85;;;3.35;;
64903;SDS011;51401;48.882;12.598;2023-11-19T14:07:50;5.05;;;4.15;;
64903;SDS011;51401;48.882;12.598;2023-11-19T14:10:16;4.10;;;3.55;;
64903;SDS011;51401;48.882;12.598;2023-11-19T14:12:42;4.68;;;3.80;;
64903;SDS011;51401;48.882;12.598;2023-11-19T14:15:08;4.60;;;4.20;;
64903;SDS011;51401;48.882;12.598;2023-11-19T14:17:37;6.10;;;5.35;;
64903;SDS011;51401;48.882;12.598;2023-11-19T14:20:02;6.15;;;5.55;;
64903;SDS011;51401;48.882;12.598;2023-11-19T14:22:37;4.93;;;4.45;;
64903;SDS011;51401;48.882;12.598;2023-11-19T14:25:03;5.28;;;4.78;;
64903;SDS011;51401;48.882;12.598;2023-11-19T14:27:30;5.72;;;4.90;;
64903;SDS011;51401;48.882;12.598;2023-11-19T14:29:58;6.78;;;4.20;;
64903;SDS011;51401;48.882;12.598;2023-11-19T14:32:23;4.50;;;4.10;;
64903;SDS011;51401;48.882;12.598;2023-11-19T14:34:48;4.60;;;4.20;;
64903;SDS011;51401;48.882;12.598;2023-11-19T14:37:14;4.30;;;3.90;;
64903;SDS011;51401;48.882;12.598;2023-11-19T14:39:39;4.97;;;3.95;;
64903;SDS011;51401;48.882;12.598;2023-11-19T14:42:04;4.50;;;3.97;;
64903;SDS011;51401;48.882;12.598;2023-11-19T14:44:33;7.78;;;5.90;;
64903;SDS011;51401;48.882;12.598;2023-11-19T14:46:58;5.90;;;5.10;;
64903;SDS011;51401;48.882;12.598;2023-11-19T14:49:24;6.15;;;5.53;;
64903;SDS011;51401;48.882;12.598;2023-11-19T14:51:49;7.75;;;6.50;;
64903;SDS011;51401;48.882;12.598;2023-11-19T14:54:15;7.75;;;6.88;;